sensor_id;sensor_type;location;lat;lon;timestamp;P1;durP1;ratioP1;P2;durP2;ratioP2
25009;SDS011;13026;49.486;10.926;2022-07-29T00:01:48;3.65;;;2.15;;
25009;SDS011;13026;49.486;10.926;2022-07-29T00:04:14;9.35;;;2.08;;
25009;SDS011;13026;49.486;10.926;2022-07-29T00:06:40;5.82;;;2.22;;
25009;SDS011;13026;49.486;10.926;2022-07-29T00:09:05;6.60;;;1.90;;
25009;SDS011;13026;49.486;10.926;2022-07-29T00:11:31;4.85;;;1.92;;
25009;SDS011;13026;49.486;10.926;2022-07-29T00:13:57;8.23;;;2.10;;
25009;SDS011;13026;49.486;10.926;2022-07-29T00:16:23;8.23;;;2.05;;
25009;SDS011;13026;49.486;10.926;2022-07-29T00:18:48;3.45;;;1.80;;
25009;SDS011;13026;49.486;10.926;2022-07-29T00:21:14;6.43;;;2.28;;
25009;SDS011;13026;49.486;10.926;2022-07-29T00:23:39;5.43;;;1.80;;
25009;SDS011;13026;49.486;10.926;2022-07-29T00:26:05;3.40;;;2.25;;
25009;SDS011;13026;49.486;10.926;2022-07-29T00:28:30;6.32;;;2.25;;
25009;SDS011;13026;49.486;10.926;2022-07-29T00:30:56;4.40;;;2.08;;
25009;SDS011;13026;49.486;10.926;2022-07-29T00:33:21;4.38;;;2.10;;
25009;SDS011;13026;49.486;10.926;2022-07-29T00:35:47;7.55;;;2.50;;
25009;SDS011;13026;49.486;10.926;2022-07-29T00:38:20;9.40;;;2.10;;
25009;SDS011;13026;49.486;10.926;2022-07-29T00:40:45;4.97;;;2.20;;
25009;SDS011;13026;49.486;10.926;2022-07-29T00:43:12;2.78;;;2.10;;
25009;SDS011;13026;49.486;10.926;2022-07-29T00:45:38;8.35;;;2.40;;
25009;SDS011;13026;49.486;10.926;2022-07-29T00:48:05;3.97;;;2.30;;
25009;SDS011;13026;49.486;10.926;2022-07-29T00:50:31;8.55;;;2.45;;
25009;SDS011;13026;49.486;10.926;2022-07-29T00:52:58;4.82;;;1.85;;
25009;SDS011;13026;49.486;10.926;2022-07-29T00:55:24;2.72;;;1.90;;
25009;SDS011;13026;49.486;10.926;2022-07-29T00:57:50;8.15;;;2.50;;
25009;SDS011;13026;49.486;10.926;2022-07-29T01:00:20;4.47;;;2.28;;
25009;SDS011;13026;49.486;10.926;2022-07-29T01:02:49;6.65;;;2.40;;
25009;SDS011;13026;49.486;10.926;2022-07-29T01:05:19;6.10;;;2.10;;
25009;SDS011;13026;49.486;10.926;2022-07-29T01:07:46;3.95;;;1.90;;
25009;SDS011;13026;49.486;10.926;2022-07-29T01:10:14;6.95;;;2.00;;
25009;SDS011;13026;49.486;10.926;2022-07-29T01:12:40;7.80;;;2.15;;
25009;SDS011;13026;49.486;10.926;2022-07-29T01:15:09;6.97;;;2.42;;
25009;SDS011;13026;49.486;10.926;2022-07-29T01:17:38;4.90;;;2.15;;
25009;SDS011;13026;49.486;10.926;2022-07-29T01:20:07;6.53;;;1.80;;
25009;SDS011;13026;49.486;10.926;2022-07-29T01:31:20;9.60;;;2.53;;
25009;SDS011;13026;49.486;10.926;2022-07-29T01:33:56;6.32;;;2.28;;
25009;SDS011;13026;49.486;10.926;2022-07-29T01:39:39;5.75;;;2.22;;
25009;SDS011;13026;49.486;10.926;2022-07-29T01:41:56;2.15;;;1.95;;
25009;SDS011;13026;49.486;10.926;2022-07-29T01:44:50;4.10;;;2.33;;
25009;SDS011;13026;49.486;10.926;2022-07-29T01:47:26;5.05;;;2.10;;
25009;SDS011;13026;49.486;10.926;2022-07-29T01:50:06;5.88;;;2.35;;
25009;SDS011;13026;49.486;10.926;2022-07-29T01:52:39;6.13;;;2.53;;
25009;SDS011;13026;49.486;10.926;2022-07-29T01:55:27;4.55;;;1.90;;
25009;SDS011;13026;49.486;10.926;2022-07-29T01:57:56;5.10;;;2.13;;
25009;SDS011;13026;49.486;10.926;2022-07-29T02:00:23;4.30;;;2.00;;
25009;SDS011;13026;49.486;10.926;2022-07-29T02:02:51;6.55;;;2.00;;
25009;SDS011;13026;49.486;10.926;2022-07-29T02:05:19;5.90;;;2.08;;
25009;SDS011;13026;49.486;10.926;2022-07-29T02:07:47;9.27;;;2.03;;
25009;SDS011;13026;49.486;10.926;2022-07-29T02:10:14;5.50;;;2.30;;
25009;SDS011;13026;49.486;10.926;2022-07-29T02:12:42;9.23;;;2.47;;
25009;SDS011;13026;49.486;10.926;2022-07-29T02:15:09;5.50;;;2.55;;
25009;SDS011;13026;49.486;10.926;2022-07-29T02:17:41;9.25;;;2.42;;
25009;SDS011;13026;49.486;10.926;2022-07-29T02:20:10;5.10;;;1.80;;
25009;SDS011;13026;49.486;10.926;2022-07-29T02:22:37;4.82;;;2.30;;
25009;SDS011;13026;49.486;10.926;2022-07-29T02:25:05;4.60;;;1.90;;
25009;SDS011;13026;49.486;10.926;2022-07-29T02:27:33;5.75;;;2.38;;
25009;SDS011;13026;49.486;10.926;2022-07-29T02:30:00;4.35;;;2.20;;
25009;SDS011;13026;49.486;10.926;2022-07-29T02:32:29;3.92;;;2.20;;
25009;SDS011;13026;49.486;10.926;2022-07-29T02:34:56;4.28;;;2.17;;
25009;SDS011;13026;49.486;10.926;2022-07-29T02:37:24;5.28;;;2.17;;
25009;SDS011;13026;49.486;10.926;2022-07-29T02:39:51;5.97;;;2.38;;
25009;SDS011;13026;49.486;10.926;2022-07-29T02:42:18;8.98;;;2.00;;
25009;SDS011;13026;49.486;10.926;2022-07-29T02:44:45;5.75;;;2.35;;
25009;SDS011;13026;49.486;10.926;2022-07-29T02:55:33;5.25;;;2.22;;
25009;SDS011;13026;49.486;10.926;2022-07-29T02:58:08;2.83;;;2.03;;
25009;SDS011;13026;49.486;10.926;2022-07-29T03:00:47;3.60;;;2.33;;
25009;SDS011;13026;49.486;10.926;2022-07-29T03:03:16;7.75;;;2.42;;
25009;SDS011;13026;49.486;10.926;2022-07-29T03:05:43;5.03;;;2.30;;
25009;SDS011;13026;49.486;10.926;2022-07-29T03:08:10;7.95;;;2.50;;
25009;SDS011;13026;49.486;10.926;2022-07-29T03:10:42;4.63;;;2.22;;
25009;SDS011;13026;49.486;10.926;2022-07-29T03:13:10;4.78;;;2.25;;
25009;SDS011;13026;49.486;10.926;2022-07-29T03:15:37;9.38;;;2.25;;
25009;SDS011;13026;49.486;10.926;2022-07-29T03:18:03;2.35;;;2.10;;
25009;SDS011;13026;49.486;10.926;2022-07-29T03:20:30;4.88;;;2.47;;
25009;SDS011;13026;49.486;10.926;2022-07-29T03:22:56;6.90;;;2.35;;
25009;SDS011;13026;49.486;10.926;2022-07-29T03:25:21;4.18;;;2.40;;
25009;SDS011;13026;49.486;10.926;2022-07-29T03:27:47;9.98;;;2.55;;
25009;SDS011;13026;49.486;10.926;2022-07-29T03:30:13;5.55;;;2.35;;
25009;SDS011;13026;49.486;10.926;2022-07-29T03:32:40;5.07;;;2.20;;
25009;SDS011;13026;49.486;10.926;2022-07-29T03:35:05;8.63;;;2.35;;
25009;SDS011;13026;49.486;10.926;2022-07-29T03:37:33;6.00;;;2.65;;
25009;SDS011;13026;49.486;10.926;2022-07-29T03:40:00;11.32;;;2.70;;
25009;SDS011;13026;49.486;10.926;2022-07-29T03:42:28;7.20;;;2.40;;
25009;SDS011;13026;49.486;10.926;2022-07-29T03:44:58;3.58;;;2.25;;
25009;SDS011;13026;49.486;10.926;2022-07-29T03:47:27;8.32;;;2.75;;
25009;SDS011;13026;49.486;10.926;2022-07-29T03:49:56;5.07;;;2.35;;
25009;SDS011;13026;49.486;10.926;2022-07-29T03:52:31;5.43;;;2.53;;
25009;SDS011;13026;49.486;10.926;2022-07-29T03:54:57;5.97;;;2.20;;
25009;SDS011;13026;49.486;10.926;2022-07-29T03:57:23;5.25;;;2.65;;
25009;SDS011;13026;49.486;10.926;2022-07-29T03:59:52;8.90;;;2.83;;
25009;SDS011;13026;49.486;10.926;2022-07-29T04:02:18;6.45;;;2.60;;
25009;SDS011;13026;49.486;10.926;2022-07-29T04:04:44;4.00;;;2.47;;
25009;SDS011;13026;49.486;10.926;2022-07-29T04:07:13;6.68;;;2.53;;
25009;SDS011;13026;49.486;10.926;2022-07-29T04:09:40;4.07;;;2.58;;
25009;SDS011;13026;49.486;10.926;2022-07-29T04:12:06;3.35;;;2.67;;
25009;SDS011;13026;49.486;10.926;2022-07-29T04:14:32;5.07;;;2.65;;
25009;SDS011;13026;49.486;10.926;2022-07-29T04:16:58;12.65;;;3.05;;
25009;SDS011;13026;49.486;10.926;2022-07-29T04:19:24;5.97;;;2.80;;
25009;SDS011;13026;49.486;10.926;2022-07-29T04:21:50;6.78;;;2.60;;
25009;SDS011;13026;49.486;10.926;2022-07-29T04:24:16;5.40;;;2.60;;
25009;SDS011;13026;49.486;10.926;2022-07-29T04:26:41;2.65;;;2.00;;
25009;SDS011;13026;49.486;10.926;2022-07-29T04:29:07;4.80;;;2.38;;
25009;SDS011;13026;49.486;10.926;2022-07-29T04:31:32;6.10;;;2.70;;
25009;SDS011;13026;49.486;10.926;2022-07-29T04:33:58;4.45;;;2.65;;
25009;SDS011;13026;49.486;10.926;2022-07-29T04:36:23;7.07;;;2.72;;
25009;SDS011;13026;49.486;10.926;2022-07-29T04:38:49;5.20;;;2.53;;
25009;SDS011;13026;49.486;10.926;2022-07-29T04:41:14;7.57;;;2.92;;
25009;SDS011;13026;49.486;10.926;2022-07-29T04:43:40;5.60;;;2.47;;
25009;SDS011;13026;49.486;10.926;2022-07-29T04:46:06;4.47;;;2.70;;
25009;SDS011;13026;49.486;10.926;2022-07-29T04:48:32;8.90;;;2.72;;
25009;SDS011;13026;49.486;10.926;2022-07-29T04:50:57;9.35;;;2.80;;
25009;SDS011;13026;49.486;10.926;2022-07-29T04:53:23;7.05;;;2.47;;
25009;SDS011;13026;49.486;10.926;2022-07-29T04:55:49;5.40;;;2.70;;
25009;SDS011;13026;49.486;10.926;2022-07-29T04:58:14;6.90;;;2.72;;
25009;SDS011;13026;49.486;10.926;2022-07-29T05:00:40;12.55;;;3.15;;
25009;SDS011;13026;49.486;10.926;2022-07-29T05:03:05;9.18;;;2.95;;
25009;SDS011;13026;49.486;10.926;2022-07-29T05:05:31;4.90;;;2.80;;
25009;SDS011;13026;49.486;10.926;2022-07-29T05:07:57;11.13;;;2.90;;
25009;SDS011;13026;49.486;10.926;2022-07-29T05:10:22;14.20;;;3.65;;
25009;SDS011;13026;49.486;10.926;2022-07-29T05:12:48;5.85;;;3.20;;
25009;SDS011;13026;49.486;10.926;2022-07-29T05:15:14;5.72;;;2.78;;
25009;SDS011;13026;49.486;10.926;2022-07-29T05:17:39;6.13;;;3.13;;
25009;SDS011;13026;49.486;10.926;2022-07-29T05:20:05;4.10;;;2.50;;
25009;SDS011;13026;49.486;10.926;2022-07-29T05:22:31;6.47;;;2.90;;
25009;SDS011;13026;49.486;10.926;2022-07-29T05:24:56;13.23;;;3.40;;
25009;SDS011;13026;49.486;10.926;2022-07-29T05:27:22;6.85;;;3.33;;
25009;SDS011;13026;49.486;10.926;2022-07-29T05:29:47;10.10;;;3.30;;
25009;SDS011;13026;49.486;10.926;2022-07-29T05:32:13;9.95;;;3.40;;
25009;SDS011;13026;49.486;10.926;2022-07-29T05:34:39;6.47;;;3.15;;
25009;SDS011;13026;49.486;10.926;2022-07-29T05:37:05;8.95;;;2.90;;
25009;SDS011;13026;49.486;10.926;2022-07-29T05:39:31;5.07;;;3.60;;
25009;SDS011;13026;49.486;10.926;2022-07-29T05:41:56;10.73;;;3.35;;
25009;SDS011;13026;49.486;10.926;2022-07-29T05:44:22;8.57;;;3.40;;
25009;SDS011;13026;49.486;10.926;2022-07-29T05:46:47;8.18;;;3.33;;
25009;SDS011;13026;49.486;10.926;2022-07-29T05:49:13;5.15;;;3.33;;
25009;SDS011;13026;49.486;10.926;2022-07-29T05:51:38;7.32;;;3.00;;
25009;SDS011;13026;49.486;10.926;2022-07-29T05:54:04;5.78;;;2.78;;
25009;SDS011;13026;49.486;10.926;2022-07-29T05:56:29;5.72;;;2.65;;
25009;SDS011;13026;49.486;10.926;2022-07-29T05:58:55;7.25;;;2.58;;
25009;SDS011;13026;49.486;10.926;2022-07-29T06:01:20;11.23;;;2.85;;
25009;SDS011;13026;49.486;10.926;2022-07-29T06:03:46;13.50;;;2.60;;
25009;SDS011;13026;49.486;10.926;2022-07-29T06:06:11;8.45;;;2.72;;
25009;SDS011;13026;49.486;10.926;2022-07-29T06:08:37;9.45;;;3.33;;
25009;SDS011;13026;49.486;10.926;2022-07-29T06:11:03;10.75;;;4.63;;
25009;SDS011;13026;49.486;10.926;2022-07-29T06:13:29;14.52;;;4.15;;
25009;SDS011;13026;49.486;10.926;2022-07-29T06:15:55;10.95;;;4.57;;
25009;SDS011;13026;49.486;10.926;2022-07-29T06:18:21;7.78;;;3.47;;
25009;SDS011;13026;49.486;10.926;2022-07-29T06:20:47;12.02;;;3.38;;
25009;SDS011;13026;49.486;10.926;2022-07-29T06:23:12;14.68;;;2.45;;
25009;SDS011;13026;49.486;10.926;2022-07-29T06:25:39;3.88;;;2.65;;
25009;SDS011;13026;49.486;10.926;2022-07-29T06:28:05;4.35;;;2.92;;
25009;SDS011;13026;49.486;10.926;2022-07-29T06:30:30;5.40;;;2.50;;
25009;SDS011;13026;49.486;10.926;2022-07-29T06:32:56;7.65;;;2.95;;
25009;SDS011;13026;49.486;10.926;2022-07-29T06:35:21;6.15;;;2.42;;
25009;SDS011;13026;49.486;10.926;2022-07-29T06:37:47;5.57;;;2.80;;
25009;SDS011;13026;49.486;10.926;2022-07-29T06:40:12;6.70;;;2.67;;
25009;SDS011;13026;49.486;10.926;2022-07-29T06:42:41;8.15;;;2.78;;
25009;SDS011;13026;49.486;10.926;2022-07-29T06:45:08;8.35;;;2.90;;
25009;SDS011;13026;49.486;10.926;2022-07-29T06:47:34;8.20;;;2.38;;
25009;SDS011;13026;49.486;10.926;2022-07-29T06:49:59;9.40;;;2.80;;
25009;SDS011;13026;49.486;10.926;2022-07-29T06:52:25;6.63;;;2.47;;
25009;SDS011;13026;49.486;10.926;2022-07-29T06:54:50;9.10;;;2.22;;
25009;SDS011;13026;49.486;10.926;2022-07-29T06:57:16;13.23;;;2.92;;
25009;SDS011;13026;49.486;10.926;2022-07-29T06:59:41;9.30;;;3.10;;
25009;SDS011;13026;49.486;10.926;2022-07-29T07:02:07;5.28;;;2.35;;
25009;SDS011;13026;49.486;10.926;2022-07-29T07:04:32;5.60;;;2.40;;
25009;SDS011;13026;49.486;10.926;2022-07-29T07:06:58;6.47;;;2.55;;
25009;SDS011;13026;49.486;10.926;2022-07-29T07:09:24;7.00;;;2.60;;
25009;SDS011;13026;49.486;10.926;2022-07-29T07:11:49;4.93;;;2.50;;
25009;SDS011;13026;49.486;10.926;2022-07-29T07:14:15;16.58;;;2.72;;
25009;SDS011;13026;49.486;10.926;2022-07-29T07:16:40;14.18;;;2.80;;
25009;SDS011;13026;49.486;10.926;2022-07-29T07:19:06;8.07;;;2.65;;
25009;SDS011;13026;49.486;10.926;2022-07-29T07:21:32;10.20;;;2.63;;
25009;SDS011;13026;49.486;10.926;2022-07-29T07:23:58;12.32;;;3.05;;
25009;SDS011;13026;49.486;10.926;2022-07-29T07:26:25;6.47;;;2.70;;
25009;SDS011;13026;49.486;10.926;2022-07-29T07:28:50;9.00;;;2.92;;
25009;SDS011;13026;49.486;10.926;2022-07-29T07:31:16;9.05;;;3.33;;
25009;SDS011;13026;49.486;10.926;2022-07-29T07:33:41;8.70;;;2.83;;
25009;SDS011;13026;49.486;10.926;2022-07-29T07:36:07;8.45;;;2.80;;
25009;SDS011;13026;49.486;10.926;2022-07-29T07:38:32;8.75;;;3.15;;
25009;SDS011;13026;49.486;10.926;2022-07-29T07:40:58;7.53;;;2.97;;
25009;SDS011;13026;49.486;10.926;2022-07-29T07:43:24;7.43;;;2.85;;
25009;SDS011;13026;49.486;10.926;2022-07-29T07:45:50;5.65;;;2.75;;
25009;SDS011;13026;49.486;10.926;2022-07-29T07:48:16;7.35;;;2.65;;
25009;SDS011;13026;49.486;10.926;2022-07-29T07:50:41;14.43;;;2.67;;
25009;SDS011;13026;49.486;10.926;2022-07-29T07:53:07;4.70;;;2.80;;
25009;SDS011;13026;49.486;10.926;2022-07-29T07:55:32;8.50;;;2.75;;
25009;SDS011;13026;49.486;10.926;2022-07-29T07:57:58;4.43;;;2.90;;
25009;SDS011;13026;49.486;10.926;2022-07-29T08:00:23;5.40;;;2.90;;
25009;SDS011;13026;49.486;10.926;2022-07-29T08:02:49;8.73;;;2.83;;
25009;SDS011;13026;49.486;10.926;2022-07-29T08:05:15;6.32;;;2.83;;
25009;SDS011;13026;49.486;10.926;2022-07-29T08:07:40;15.10;;;2.80;;
25009;SDS011;13026;49.486;10.926;2022-07-29T08:10:06;10.50;;;2.70;;
25009;SDS011;13026;49.486;10.926;2022-07-29T08:12:32;13.73;;;2.85;;
25009;SDS011;13026;49.486;10.926;2022-07-29T08:14:57;17.65;;;3.78;;
25009;SDS011;13026;49.486;10.926;2022-07-29T08:17:23;16.63;;;3.55;;
25009;SDS011;13026;49.486;10.926;2022-07-29T08:19:48;7.63;;;3.50;;
25009;SDS011;13026;49.486;10.926;2022-07-29T08:22:14;7.63;;;2.75;;
25009;SDS011;13026;49.486;10.926;2022-07-29T08:24:40;13.45;;;3.70;;
25009;SDS011;13026;49.486;10.926;2022-07-29T08:27:06;49.67;;;5.63;;
25009;SDS011;13026;49.486;10.926;2022-07-29T08:29:31;6.68;;;2.90;;
25009;SDS011;13026;49.486;10.926;2022-07-29T08:31:57;4.05;;;2.90;;
25009;SDS011;13026;49.486;10.926;2022-07-29T08:34:22;7.93;;;3.13;;
25009;SDS011;13026;49.486;10.926;2022-07-29T08:36:48;10.63;;;3.40;;
25009;SDS011;13026;49.486;10.926;2022-07-29T08:39:13;8.88;;;3.08;;
25009;SDS011;13026;49.486;10.926;2022-07-29T08:41:40;7.75;;;3.13;;
25009;SDS011;13026;49.486;10.926;2022-07-29T08:44:05;5.50;;;3.42;;
25009;SDS011;13026;49.486;10.926;2022-07-29T08:46:31;9.00;;;3.33;;
25009;SDS011;13026;49.486;10.926;2022-07-29T08:48:57;3.95;;;3.35;;
25009;SDS011;13026;49.486;10.926;2022-07-29T08:51:22;4.78;;;2.60;;
25009;SDS011;13026;49.486;10.926;2022-07-29T08:53:50;5.20;;;2.80;;
25009;SDS011;13026;49.486;10.926;2022-07-29T08:56:16;5.00;;;2.85;;
25009;SDS011;13026;49.486;10.926;2022-07-29T08:58:43;5.85;;;2.90;;
25009;SDS011;13026;49.486;10.926;2022-07-29T09:01:10;6.68;;;2.47;;
25009;SDS011;13026;49.486;10.926;2022-07-29T09:03:38;5.13;;;2.35;;
25009;SDS011;13026;49.486;10.926;2022-07-29T09:06:05;3.35;;;2.70;;
25009;SDS011;13026;49.486;10.926;2022-07-29T09:08:31;4.78;;;2.55;;
25009;SDS011;13026;49.486;10.926;2022-07-29T09:10:57;3.35;;;2.40;;
25009;SDS011;13026;49.486;10.926;2022-07-29T09:13:25;5.68;;;2.65;;
25009;SDS011;13026;49.486;10.926;2022-07-29T09:15:51;3.35;;;2.42;;
25009;SDS011;13026;49.486;10.926;2022-07-29T09:18:33;7.18;;;2.10;;
25009;SDS011;13026;49.486;10.926;2022-07-29T09:21:04;6.68;;;2.60;;
25009;SDS011;13026;49.486;10.926;2022-07-29T09:23:31;7.07;;;2.63;;
25009;SDS011;13026;49.486;10.926;2022-07-29T09:25:56;6.03;;;2.22;;
25009;SDS011;13026;49.486;10.926;2022-07-29T09:28:30;3.80;;;2.28;;
25009;SDS011;13026;49.486;10.926;2022-07-29T09:30:57;5.88;;;2.80;;
25009;SDS011;13026;49.486;10.926;2022-07-29T09:33:23;6.28;;;3.10;;
25009;SDS011;13026;49.486;10.926;2022-07-29T09:38:34;2.35;;;2.15;;
25009;SDS011;13026;49.486;10.926;2022-07-29T09:41:01;4.93;;;2.58;;
25009;SDS011;13026;49.486;10.926;2022-07-29T09:43:28;4.10;;;2.70;;
25009;SDS011;13026;49.486;10.926;2022-07-29T09:45:54;6.88;;;2.70;;
25009;SDS011;13026;49.486;10.926;2022-07-29T09:48:21;4.47;;;2.60;;
25009;SDS011;13026;49.486;10.926;2022-07-29T09:50:48;2.95;;;2.33;;
25009;SDS011;13026;49.486;10.926;2022-07-29T09:53:34;4.07;;;2.70;;
25009;SDS011;13026;49.486;10.926;2022-07-29T09:56:02;7.22;;;2.70;;
25009;SDS011;13026;49.486;10.926;2022-07-29T09:58:28;4.60;;;2.40;;
25009;SDS011;13026;49.486;10.926;2022-07-29T10:00:54;7.35;;;3.08;;
25009;SDS011;13026;49.486;10.926;2022-07-29T10:03:20;2.75;;;2.45;;
25009;SDS011;13026;49.486;10.926;2022-07-29T10:06:03;11.25;;;2.85;;
25009;SDS011;13026;49.486;10.926;2022-07-29T10:08:33;5.28;;;2.90;;
25009;SDS011;13026;49.486;10.926;2022-07-29T10:11:08;6.47;;;2.75;;
25009;SDS011;13026;49.486;10.926;2022-07-29T10:13:35;8.02;;;2.67;;
25009;SDS011;13026;49.486;10.926;2022-07-29T10:16:01;4.70;;;2.97;;
25009;SDS011;13026;49.486;10.926;2022-07-29T10:18:27;4.13;;;3.05;;
25009;SDS011;13026;49.486;10.926;2022-07-29T10:20:53;9.07;;;2.85;;
25009;SDS011;13026;49.486;10.926;2022-07-29T10:23:19;6.80;;;2.95;;
25009;SDS011;13026;49.486;10.926;2022-07-29T10:25:45;4.63;;;2.80;;
25009;SDS011;13026;49.486;10.926;2022-07-29T10:28:11;5.65;;;2.70;;
25009;SDS011;13026;49.486;10.926;2022-07-29T10:30:36;6.28;;;2.55;;
25009;SDS011;13026;49.486;10.926;2022-07-29T10:33:09;4.20;;;2.80;;
25009;SDS011;13026;49.486;10.926;2022-07-29T10:36:00;5.05;;;2.70;;
25009;SDS011;13026;49.486;10.926;2022-07-29T10:38:42;2.85;;;2.55;;
25009;SDS011;13026;49.486;10.926;2022-07-29T10:44:05;6.60;;;3.10;;
25009;SDS011;13026;49.486;10.926;2022-07-29T10:46:35;10.52;;;3.08;;
25009;SDS011;13026;49.486;10.926;2022-07-29T11:07:25;3.70;;;2.05;;
25009;SDS011;13026;49.486;10.926;2022-07-29T11:15:08;2.75;;;2.55;;
25009;SDS011;13026;49.486;10.926;2022-07-29T11:18:02;7.95;;;2.63;;
25009;SDS011;13026;49.486;10.926;2022-07-29T11:20:33;4.75;;;2.50;;
25009;SDS011;13026;49.486;10.926;2022-07-29T11:23:25;5.22;;;2.33;;
25009;SDS011;13026;49.486;10.926;2022-07-29T11:28:34;6.00;;;2.33;;
25009;SDS011;13026;49.486;10.926;2022-07-29T11:31:04;2.67;;;2.20;;
25009;SDS011;13026;49.486;10.926;2022-07-29T11:33:33;2.80;;;2.10;;
25009;SDS011;13026;49.486;10.926;2022-07-29T11:36:12;2.67;;;2.10;;
25009;SDS011;13026;49.486;10.926;2022-07-29T11:38:39;3.97;;;2.33;;
25009;SDS011;13026;49.486;10.926;2022-07-29T11:46:16;2.67;;;2.47;;
25009;SDS011;13026;49.486;10.926;2022-07-29T11:49:00;3.78;;;2.40;;
25009;SDS011;13026;49.486;10.926;2022-07-29T11:51:27;7.53;;;2.83;;
25009;SDS011;13026;49.486;10.926;2022-07-29T11:53:53;3.80;;;2.30;;
25009;SDS011;13026;49.486;10.926;2022-07-29T11:56:20;3.15;;;2.60;;
25009;SDS011;13026;49.486;10.926;2022-07-29T11:58:46;6.50;;;2.50;;
25009;SDS011;13026;49.486;10.926;2022-07-29T12:01:13;2.60;;;2.40;;
25009;SDS011;13026;49.486;10.926;2022-07-29T12:03:40;4.15;;;2.75;;
25009;SDS011;13026;49.486;10.926;2022-07-29T12:06:11;5.53;;;2.60;;
25009;SDS011;13026;49.486;10.926;2022-07-29T12:08:41;4.82;;;2.50;;
25009;SDS011;13026;49.486;10.926;2022-07-29T12:11:14;3.88;;;2.70;;
25009;SDS011;13026;49.486;10.926;2022-07-29T12:13:41;7.68;;;2.40;;
25009;SDS011;13026;49.486;10.926;2022-07-29T12:16:06;5.40;;;2.58;;
25009;SDS011;13026;49.486;10.926;2022-07-29T12:18:32;3.47;;;2.67;;
25009;SDS011;13026;49.486;10.926;2022-07-29T12:20:58;4.93;;;3.17;;
25009;SDS011;13026;49.486;10.926;2022-07-29T12:23:24;5.10;;;2.45;;
25009;SDS011;13026;49.486;10.926;2022-07-29T12:25:50;5.00;;;2.10;;
25009;SDS011;13026;49.486;10.926;2022-07-29T12:28:17;4.43;;;2.75;;
25009;SDS011;13026;49.486;10.926;2022-07-29T12:30:46;9.30;;;2.55;;
25009;SDS011;13026;49.486;10.926;2022-07-29T12:35:53;7.47;;;2.50;;
25009;SDS011;13026;49.486;10.926;2022-07-29T12:38:20;4.07;;;2.75;;
25009;SDS011;13026;49.486;10.926;2022-07-29T12:40:47;5.88;;;2.60;;
25009;SDS011;13026;49.486;10.926;2022-07-29T12:43:14;3.35;;;2.55;;
25009;SDS011;13026;49.486;10.926;2022-07-29T12:45:48;4.93;;;2.50;;
25009;SDS011;13026;49.486;10.926;2022-07-29T12:48:35;4.13;;;3.65;;
25009;SDS011;13026;49.486;10.926;2022-07-29T12:51:02;11.68;;;2.70;;
25009;SDS011;13026;49.486;10.926;2022-07-29T12:53:29;4.10;;;2.22;;
25009;SDS011;13026;49.486;10.926;2022-07-29T12:55:56;7.47;;;2.47;;
25009;SDS011;13026;49.486;10.926;2022-07-29T12:58:26;3.67;;;2.58;;
25009;SDS011;13026;49.486;10.926;2022-07-29T13:01:04;4.57;;;2.50;;
25009;SDS011;13026;49.486;10.926;2022-07-29T13:03:42;6.50;;;2.90;;
25009;SDS011;13026;49.486;10.926;2022-07-29T13:09:23;3.65;;;2.45;;
25009;SDS011;13026;49.486;10.926;2022-07-29T13:11:49;2.97;;;2.63;;
25009;SDS011;13026;49.486;10.926;2022-07-29T13:14:32;2.80;;;2.55;;
25009;SDS011;13026;49.486;10.926;2022-07-29T13:19:44;6.00;;;2.80;;
25009;SDS011;13026;49.486;10.926;2022-07-29T13:22:15;5.05;;;2.80;;
25009;SDS011;13026;49.486;10.926;2022-07-29T13:24:49;4.15;;;2.63;;
25009;SDS011;13026;49.486;10.926;2022-07-29T13:27:18;3.17;;;2.72;;
25009;SDS011;13026;49.486;10.926;2022-07-29T13:29:45;3.67;;;2.65;;
25009;SDS011;13026;49.486;10.926;2022-07-29T13:32:12;4.90;;;2.45;;
25009;SDS011;13026;49.486;10.926;2022-07-29T13:34:38;6.38;;;2.53;;
25009;SDS011;13026;49.486;10.926;2022-07-29T13:37:04;4.93;;;2.75;;
25009;SDS011;13026;49.486;10.926;2022-07-29T13:39:30;5.85;;;2.60;;
25009;SDS011;13026;49.486;10.926;2022-07-29T13:41:56;4.85;;;2.60;;
25009;SDS011;13026;49.486;10.926;2022-07-29T13:44:21;2.53;;;2.20;;
25009;SDS011;13026;49.486;10.926;2022-07-29T13:46:47;4.97;;;2.42;;
25009;SDS011;13026;49.486;10.926;2022-07-29T13:49:12;6.60;;;2.28;;
25009;SDS011;13026;49.486;10.926;2022-07-29T13:51:38;8.60;;;2.45;;
25009;SDS011;13026;49.486;10.926;2022-07-29T13:54:04;11.25;;;2.40;;
25009;SDS011;13026;49.486;10.926;2022-07-29T13:56:29;9.70;;;2.33;;
25009;SDS011;13026;49.486;10.926;2022-07-29T13:58:55;8.55;;;2.50;;
25009;SDS011;13026;49.486;10.926;2022-07-29T14:01:21;4.13;;;2.55;;
25009;SDS011;13026;49.486;10.926;2022-07-29T14:03:46;13.20;;;2.85;;
25009;SDS011;13026;49.486;10.926;2022-07-29T14:06:12;20.00;;;3.72;;
25009;SDS011;13026;49.486;10.926;2022-07-29T14:08:38;10.48;;;2.60;;
25009;SDS011;13026;49.486;10.926;2022-07-29T14:11:04;8.15;;;2.78;;
25009;SDS011;13026;49.486;10.926;2022-07-29T14:13:29;7.50;;;2.28;;
25009;SDS011;13026;49.486;10.926;2022-07-29T14:15:55;6.32;;;2.30;;
25009;SDS011;13026;49.486;10.926;2022-07-29T14:18:20;6.85;;;2.03;;
25009;SDS011;13026;49.486;10.926;2022-07-29T14:20:46;1.90;;;1.70;;
25009;SDS011;13026;49.486;10.926;2022-07-29T14:23:11;2.92;;;1.70;;
25009;SDS011;13026;49.486;10.926;2022-07-29T14:25:37;2.70;;;1.55;;
25009;SDS011;13026;49.486;10.926;2022-07-29T14:28:02;1.52;;;1.42;;
25009;SDS011;13026;49.486;10.926;2022-07-29T14:30:28;2.42;;;1.52;;
25009;SDS011;13026;49.486;10.926;2022-07-29T14:32:57;4.70;;;1.45;;
25009;SDS011;13026;49.486;10.926;2022-07-29T14:35:22;3.97;;;1.52;;
25009;SDS011;13026;49.486;10.926;2022-07-29T14:37:48;2.15;;;1.73;;
25009;SDS011;13026;49.486;10.926;2022-07-29T14:40:13;2.63;;;1.50;;
25009;SDS011;13026;49.486;10.926;2022-07-29T14:42:39;2.58;;;1.42;;
25009;SDS011;13026;49.486;10.926;2022-07-29T14:45:05;2.50;;;1.88;;
25009;SDS011;13026;49.486;10.926;2022-07-29T14:47:33;3.80;;;2.20;;
25009;SDS011;13026;49.486;10.926;2022-07-29T14:49:58;9.25;;;2.17;;
25009;SDS011;13026;49.486;10.926;2022-07-29T14:52:24;4.65;;;2.40;;
25009;SDS011;13026;49.486;10.926;2022-07-29T14:54:49;11.27;;;2.53;;
25009;SDS011;13026;49.486;10.926;2022-07-29T14:57:15;2.30;;;2.00;;
25009;SDS011;13026;49.486;10.926;2022-07-29T14:59:41;3.30;;;2.17;;
25009;SDS011;13026;49.486;10.926;2022-07-29T15:02:06;5.43;;;2.60;;
25009;SDS011;13026;49.486;10.926;2022-07-29T15:04:32;2.50;;;2.30;;
25009;SDS011;13026;49.486;10.926;2022-07-29T15:06:57;4.03;;;2.40;;
25009;SDS011;13026;49.486;10.926;2022-07-29T15:09:23;5.55;;;2.45;;
25009;SDS011;13026;49.486;10.926;2022-07-29T15:11:48;4.28;;;1.95;;
25009;SDS011;13026;49.486;10.926;2022-07-29T15:14:14;5.25;;;2.33;;
25009;SDS011;13026;49.486;10.926;2022-07-29T15:16:40;3.42;;;2.78;;
25009;SDS011;13026;49.486;10.926;2022-07-29T15:19:05;9.75;;;3.13;;
25009;SDS011;13026;49.486;10.926;2022-07-29T15:21:31;5.05;;;2.80;;
25009;SDS011;13026;49.486;10.926;2022-07-29T15:23:57;10.40;;;3.75;;
25009;SDS011;13026;49.486;10.926;2022-07-29T15:26:22;11.00;;;4.35;;
25009;SDS011;13026;49.486;10.926;2022-07-29T15:28:48;10.55;;;4.57;;
25009;SDS011;13026;49.486;10.926;2022-07-29T15:31:13;7.82;;;4.00;;
25009;SDS011;13026;49.486;10.926;2022-07-29T15:33:39;11.32;;;4.82;;
25009;SDS011;13026;49.486;10.926;2022-07-29T15:36:04;9.48;;;4.07;;
25009;SDS011;13026;49.486;10.926;2022-07-29T15:38:30;8.55;;;3.90;;
25009;SDS011;13026;49.486;10.926;2022-07-29T15:40:56;5.90;;;4.72;;